createdAt,value
2019-02-12T00:00:03.750Z,90
2019-02-12T00:01:03.241Z,90
2019-02-12T00:02:03.580Z,90
2019-02-12T00:03:03.171Z,90
2019-02-12T00:04:03.427Z,90
2019-02-12T00:05:03.185Z,90
2019-02-12T00:06:03.530Z,90
2019-02-12T00:07:02.987Z,90
2019-02-12T00:08:03.543Z,90
2019-02-12T00:09:03.177Z,90
2019-02-12T00:10:03.445Z,90
2019-02-12T00:11:02.835Z,90
2019-02-12T00:12:02.824Z,90
2019-02-12T00:13:02.985Z,90
2019-02-12T00:14:03.538Z,90
2019-02-12T00:15:03.201Z,90
2019-02-12T00:16:03.178Z,90
2019-02-12T00:17:03.807Z,90
2019-02-12T00:18:03.037Z,90
2019-02-12T00:19:03.740Z,90
2019-02-12T00:20:03.321Z,90
2019-02-12T00:21:09.665Z,90
2019-02-12T00:22:02.975Z,91
2019-02-12T00:23:03.188Z,90
2019-02-12T00:24:03.652Z,90
2019-02-12T00:25:03.224Z,90
2019-02-12T00:26:03.559Z,90
2019-02-12T00:27:03.193Z,90
2019-02-12T00:28:03.828Z,90
2019-02-12T00:29:03.165Z,90
2019-02-12T00:30:03.711Z,90
2019-02-12T00:31:03.000Z,90
2019-02-12T00:32:02.952Z,90
2019-02-12T00:33:03.250Z,90
2019-02-12T00:34:03.745Z,90
2019-02-12T00:35:03.329Z,90
2019-02-12T00:36:03.468Z,90
2019-02-12T00:37:02.929Z,90
2019-02-12T00:38:03.319Z,90
2019-02-12T00:39:03.648Z,90
2019-02-12T00:40:03.799Z,90
2019-02-12T00:41:02.607Z,90
2019-02-12T00:42:03.331Z,90
2019-02-12T00:43:03.744Z,90
2019-02-12T00:44:03.170Z,90
2019-02-12T00:45:03.961Z,90
2019-02-12T00:46:03.113Z,90
2019-02-12T00:47:02.899Z,90
2019-02-12T00:48:03.439Z,90
2019-02-12T00:49:02.891Z,90
2019-02-12T00:50:03.015Z,90
2019-02-12T00:51:03.950Z,90
2019-02-12T00:52:03.319Z,90
2019-02-12T00:53:02.878Z,90
2019-02-12T00:54:03.191Z,90
2019-02-12T00:55:03.000Z,90
2019-02-12T00:56:03.091Z,90
2019-02-12T00:57:02.970Z,90
2019-02-12T00:58:03.208Z,90
2019-02-12T00:59:03.646Z,90
2019-02-12T01:00:04.956Z,90
2019-02-12T01:01:03.460Z,90
2019-02-12T01:02:02.882Z,90
2019-02-12T01:03:03.233Z,90
2019-02-12T01:04:02.908Z,90
2019-02-12T01:05:04.610Z,90
2019-02-12T01:06:03.704Z,90
2019-02-12T01:07:03.228Z,90
2019-02-12T01:08:03.623Z,90
2019-02-12T01:09:03.060Z,90
2019-02-12T01:10:03.537Z,90
2019-02-12T01:11:03.060Z,90
2019-02-12T01:12:04.113Z,90
2019-02-12T01:13:02.981Z,90
2019-02-12T01:14:03.332Z,90
2019-02-12T01:15:03.005Z,90
2019-02-12T01:16:03.723Z,90
2019-02-12T01:17:02.875Z,90
2019-02-12T01:18:03.637Z,90
2019-02-12T01:19:02.825Z,90
2019-02-12T01:20:03.486Z,90
2019-02-12T01:21:03.825Z,90
2019-02-12T01:22:03.631Z,90
2019-02-12T01:23:03.193Z,90
2019-02-12T01:24:03.700Z,90
2019-02-12T01:25:03.238Z,90
2019-02-12T01:26:03.454Z,90
2019-02-12T01:27:02.816Z,90
2019-02-12T01:28:03.762Z,90
2019-02-12T01:29:02.906Z,90
2019-02-12T01:30:03.485Z,90
2019-02-12T01:31:03.370Z,90
2019-02-12T01:32:03.710Z,90
2019-02-12T01:33:03.054Z,90
2019-02-12T01:34:03.655Z,90
2019-02-12T01:35:03.183Z,90
2019-02-12T01:36:03.712Z,90
2019-02-12T01:37:03.156Z,90
2019-02-12T01:38:03.663Z,90
2019-02-12T01:39:02.993Z,90
2019-02-12T01:40:03.119Z,90
2019-02-12T01:41:03.560Z,90
2019-02-12T01:42:03.303Z,90
2019-02-12T01:43:02.878Z,90
2019-02-12T01:44:03.670Z,90
2019-02-12T01:45:03.135Z,90
2019-02-12T01:46:03.073Z,90
2019-02-12T01:47:03.486Z,90
2019-02-12T01:48:03.279Z,90
2019-02-12T01:49:03.208Z,90
2019-02-12T01:50:03.271Z,90
2019-02-12T01:51:02.879Z,90
2019-02-12T01:52:03.565Z,90
2019-02-12T01:53:02.937Z,90
2019-02-12T01:54:03.337Z,90
2019-02-12T01:55:03.756Z,90
2019-02-12T01:56:03.179Z,90
2019-02-12T01:57:04.044Z,90
2019-02-12T01:58:03.135Z,90
2019-02-12T01:59:03.504Z,90
2019-02-12T02:00:03.402Z,90
2019-02-12T02:01:03.451Z,90
2019-02-12T02:02:03.316Z,90
2019-02-12T02:03:03.398Z,90
2019-02-12T02:04:03.731Z,90
2019-02-12T02:05:03.313Z,90
2019-02-12T02:06:02.889Z,90
2019-02-12T02:07:03.230Z,90
2019-02-12T02:08:02.978Z,90
2019-02-12T02:09:03.232Z,90
2019-02-12T02:10:03.883Z,90
2019-02-12T02:11:03.372Z,90
2019-02-12T02:12:02.818Z,90
2019-02-12T02:13:03.321Z,90
2019-02-12T02:14:03.544Z,90
2019-02-12T02:15:03.284Z,90
2019-02-12T02:16:03.737Z,90
2019-02-12T02:17:03.009Z,90
2019-02-12T02:18:03.767Z,90
2019-02-12T02:19:03.095Z,90
2019-02-12T02:20:03.573Z,90
2019-02-12T02:21:03.014Z,89
2019-02-12T02:22:03.960Z,89
2019-02-12T02:23:03.607Z,89
2019-02-12T02:24:03.187Z,89
2019-02-12T02:25:03.878Z,89
2019-02-12T02:26:03.190Z,89
2019-02-12T02:27:02.748Z,89
2019-02-12T02:28:03.062Z,89
2019-02-12T02:29:03.454Z,89
2019-02-12T02:30:02.941Z,89
2019-02-12T02:31:03.707Z,89
2019-02-12T02:32:03.224Z,89
2019-02-12T02:33:03.769Z,89
2019-02-12T02:34:03.213Z,89
2019-02-12T02:35:03.495Z,89
2019-02-12T02:36:02.846Z,89
2019-02-12T02:37:03.496Z,89
2019-02-12T02:38:03.043Z,89
2019-02-12T02:39:03.505Z,89
2019-02-12T02:40:03.138Z,89
2019-02-12T02:41:03.590Z,89
2019-02-12T02:42:02.937Z,89
2019-02-12T02:43:03.416Z,89
2019-02-12T02:44:02.882Z,89
2019-02-12T02:45:03.786Z,89
2019-02-12T02:46:02.955Z,89
2019-02-12T02:47:03.525Z,89
2019-02-12T02:48:03.104Z,88
2019-02-12T02:49:03.525Z,89
2019-02-12T02:50:03.723Z,89
2019-02-12T02:51:03.844Z,89
2019-02-12T02:52:02.954Z,89
2019-02-12T02:53:03.402Z,88
2019-02-12T02:54:02.804Z,88
2019-02-12T02:55:03.610Z,88
2019-02-12T02:56:03.869Z,89
2019-02-12T02:57:03.484Z,88
2019-02-12T02:58:03.127Z,88
2019-02-12T02:59:03.681Z,88
2019-02-12T03:00:02.927Z,88
2019-02-12T03:01:03.362Z,88
2019-02-12T03:02:02.972Z,88
2019-02-12T03:03:03.371Z,88
2019-02-12T03:04:02.979Z,88
2019-02-12T03:05:03.666Z,88
2019-02-12T03:06:03.495Z,88
2019-02-12T03:07:03.513Z,88
2019-02-12T03:08:03.375Z,88
2019-02-12T03:09:02.960Z,88
2019-02-12T03:10:03.605Z,88
2019-02-12T03:11:03.174Z,88
2019-02-12T03:12:03.465Z,88
2019-02-12T03:13:03.732Z,88
2019-02-12T03:14:03.215Z,88
2019-02-12T03:15:02.955Z,88
2019-02-12T03:16:03.214Z,88
2019-02-12T03:17:02.849Z,88
2019-02-12T03:18:03.028Z,88
2019-02-12T03:19:02.621Z,88
2019-02-12T03:20:03.229Z,88
2019-02-12T03:21:03.857Z,88
2019-02-12T03:22:04.246Z,88
2019-02-12T03:23:03.824Z,88
2019-02-12T03:24:03.085Z,88
2019-02-12T03:25:03.687Z,88
2019-02-12T03:26:03.156Z,88
2019-02-12T03:27:03.449Z,88
2019-02-12T03:28:02.960Z,88
2019-02-12T03:29:03.617Z,88
2019-02-12T03:30:03.173Z,88
2019-02-12T03:31:03.430Z,88
2019-02-12T03:32:02.790Z,88
2019-02-12T03:33:03.477Z,88
2019-02-12T03:34:02.891Z,88
2019-02-12T03:35:03.856Z,88
2019-02-12T03:36:03.094Z,88
2019-02-12T03:37:03.423Z,88
2019-02-12T03:38:02.951Z,88
2019-02-12T03:39:03.415Z,88
2019-02-12T03:40:03.148Z,88
2019-02-12T03:41:03.616Z,88
2019-02-12T03:42:03.025Z,88
2019-02-12T03:43:03.130Z,88
2019-02-12T03:44:02.812Z,88
2019-02-12T03:45:03.228Z,88
2019-02-12T03:46:02.903Z,88
2019-02-12T03:47:03.268Z,88
2019-02-12T03:48:03.629Z,88
2019-02-12T03:49:03.152Z,88
2019-02-12T03:50:03.648Z,88
2019-02-12T03:51:03.016Z,88
2019-02-12T03:52:13.255Z,88
2019-02-12T03:53:02.802Z,88
2019-02-12T03:54:03.288Z,88
2019-02-12T03:55:03.089Z,88
2019-02-12T03:56:03.391Z,88
2019-02-12T03:57:03.912Z,88
2019-02-12T03:58:03.080Z,88
2019-02-12T03:59:03.891Z,88
2019-02-12T04:00:03.038Z,88
2019-02-12T04:01:03.764Z,88
2019-02-12T04:02:03.227Z,88
2019-02-12T04:03:03.628Z,88
2019-02-12T04:04:02.815Z,88
2019-02-12T04:05:03.680Z,88
2019-02-12T04:06:03.077Z,88
2019-02-12T04:07:03.660Z,88
2019-02-12T04:08:03.654Z,88
2019-02-12T04:09:03.272Z,88
2019-02-12T04:10:02.925Z,88
2019-02-12T04:11:03.335Z,88
2019-02-12T04:12:02.869Z,88
2019-02-12T04:13:03.562Z,88
2019-02-12T04:14:02.897Z,88
2019-02-12T04:15:03.617Z,88
2019-02-12T04:16:02.981Z,88
2019-02-12T04:17:03.299Z,88
2019-02-12T04:18:02.948Z,88
2019-02-12T04:19:03.452Z,88
2019-02-12T04:20:03.231Z,88
2019-02-12T04:21:03.415Z,88
2019-02-12T04:22:02.823Z,88
2019-02-12T04:23:03.205Z,88
2019-02-12T04:24:02.835Z,88
2019-02-12T04:25:03.550Z,88
2019-02-12T04:26:03.831Z,88
2019-02-12T04:27:03.363Z,88
2019-02-12T04:28:03.678Z,88
2019-02-12T04:29:03.215Z,88
2019-02-12T04:30:03.792Z,88
2019-02-12T04:31:03.424Z,88
2019-02-12T04:32:02.839Z,88
2019-02-12T04:33:03.399Z,88
2019-02-12T04:34:03.651Z,88
2019-02-12T04:35:03.442Z,88
2019-02-12T04:36:02.959Z,88
2019-02-12T04:37:03.390Z,88
2019-02-12T04:38:03.070Z,88
2019-02-12T04:39:03.526Z,88
2019-02-12T04:40:02.644Z,88
2019-02-12T04:41:03.285Z,88
2019-02-12T04:42:03.707Z,88
2019-02-12T04:43:03.257Z,88
2019-02-12T04:44:03.425Z,88
2019-02-12T04:45:03.225Z,88
2019-02-12T04:46:03.794Z,88
2019-02-12T04:47:03.021Z,88
2019-02-12T04:48:03.438Z,88
2019-02-12T04:49:03.094Z,88
2019-02-12T04:50:02.887Z,88
2019-02-12T04:51:03.197Z,88
2019-02-12T04:52:03.831Z,88
2019-02-12T04:53:02.969Z,88
2019-02-12T04:54:03.733Z,88
2019-02-12T04:55:03.255Z,88
2019-02-12T04:56:03.951Z,88
2019-02-12T04:57:03.219Z,88
2019-02-12T04:58:02.681Z,88
2019-02-12T04:59:03.282Z,88
2019-02-12T05:00:03.733Z,88
2019-02-12T05:01:03.054Z,88
2019-02-12T05:02:04.115Z,88
2019-02-12T05:03:03.130Z,88
2019-02-12T05:04:02.789Z,88
2019-02-12T05:05:03.138Z,88
2019-02-12T05:06:03.641Z,88
2019-02-12T05:07:03.237Z,88
2019-02-12T05:08:03.835Z,88
2019-02-12T05:09:03.374Z,88
2019-02-12T05:10:03.950Z,88
2019-02-12T05:11:03.426Z,88
2019-02-12T05:12:03.733Z,88
2019-02-12T05:13:03.128Z,88
2019-02-12T05:14:03.658Z,88
2019-02-12T05:15:03.121Z,88
2019-02-12T05:16:02.760Z,88
2019-02-12T05:17:02.877Z,88
2019-02-12T05:18:03.305Z,88
2019-02-12T05:19:02.634Z,88
2019-02-12T05:20:03.330Z,88
2019-02-12T05:21:02.846Z,88
2019-02-12T05:22:03.480Z,88
2019-02-12T05:23:02.910Z,88
2019-02-12T05:24:03.373Z,88
2019-02-12T05:25:02.948Z,88
2019-02-12T05:26:03.691Z,88
2019-02-12T05:27:02.647Z,88
2019-02-12T05:28:03.213Z,88
2019-02-12T05:29:02.774Z,88
2019-02-12T05:30:03.000Z,88
2019-02-12T05:31:03.483Z,88
2019-02-12T05:32:02.942Z,88
2019-02-12T05:33:03.548Z,88
2019-02-12T05:34:03.028Z,88
2019-02-12T05:35:03.674Z,88
2019-02-12T05:36:03.032Z,88
2019-02-12T05:37:03.427Z,88
2019-02-12T05:38:02.736Z,88
2019-02-12T05:39:03.189Z,88
2019-02-12T05:40:03.023Z,88
2019-02-12T05:41:03.830Z,88
2019-02-12T05:42:03.253Z,88
2019-02-12T05:43:03.406Z,88
2019-02-12T05:44:03.058Z,88
2019-02-12T05:45:03.386Z,88
2019-02-12T05:46:03.501Z,88
2019-02-12T05:47:03.326Z,88
2019-02-12T05:48:02.964Z,88
2019-02-12T05:49:03.119Z,88
2019-02-12T05:50:03.800Z,88
2019-02-12T05:51:03.022Z,88
2019-02-12T05:52:03.637Z,88
2019-02-12T05:53:03.287Z,88
2019-02-12T05:54:02.946Z,88
2019-02-12T05:55:03.049Z,88
2019-02-12T05:56:03.535Z,88
2019-02-12T05:57:03.698Z,88
2019-02-12T05:58:03.302Z,88
2019-02-12T05:59:03.927Z,88
2019-02-12T06:00:03.464Z,88
2019-02-12T06:01:03.779Z,88
2019-02-12T06:02:03.245Z,88
2019-02-12T06:03:03.742Z,88
2019-02-12T06:04:03.302Z,87
2019-02-12T06:05:03.762Z,88
2019-02-12T06:06:02.915Z,87
2019-02-12T06:07:03.747Z,87
2019-02-12T06:08:03.316Z,87
2019-02-12T06:09:03.419Z,88
2019-02-12T06:10:03.092Z,87
2019-02-12T06:11:03.421Z,87
2019-02-12T06:12:03.219Z,87
2019-02-12T06:13:03.524Z,87
2019-02-12T06:14:02.893Z,87
2019-02-12T06:15:03.551Z,87
2019-02-12T06:16:03.058Z,87
2019-02-12T06:17:03.400Z,87
2019-02-12T06:18:03.964Z,87
2019-02-12T06:19:03.489Z,87
2019-02-12T06:20:03.001Z,87
2019-02-12T06:21:03.189Z,87
2019-02-12T06:22:03.409Z,87
2019-02-12T06:23:04.512Z,87
2019-02-12T06:24:03.456Z,87
2019-02-12T06:25:03.402Z,87
2019-02-12T06:26:03.778Z,87
2019-02-12T06:27:03.057Z,87
2019-02-12T06:28:03.754Z,87
2019-02-12T06:29:03.585Z,87
2019-02-12T06:30:03.170Z,87
2019-02-12T06:31:03.068Z,87
2019-02-12T06:32:03.642Z,87
2019-02-12T06:33:08.074Z,87
2019-02-12T06:34:03.614Z,87
2019-02-12T06:35:03.041Z,87
2019-02-12T06:36:03.708Z,87
2019-02-12T06:37:03.050Z,86
2019-02-12T06:38:03.837Z,86
2019-02-12T06:39:03.106Z,86
2019-02-12T06:40:03.681Z,86
2019-02-12T06:41:02.898Z,86
2019-02-12T06:42:03.566Z,86
2019-02-12T06:43:03.204Z,86
2019-02-12T06:44:03.722Z,86
2019-02-12T06:45:03.722Z,86
2019-02-12T06:46:03.110Z,86
2019-02-12T06:47:03.693Z,86
2019-02-12T06:48:03.200Z,86
2019-02-12T06:49:03.551Z,86
2019-02-12T06:50:02.857Z,86
2019-02-12T06:51:03.445Z,86
2019-02-12T06:52:02.716Z,86
2019-02-12T06:53:13.057Z,86
2019-02-12T06:54:02.758Z,86
2019-02-12T06:55:03.201Z,86
2019-02-12T06:56:02.587Z,86
2019-02-12T06:57:03.196Z,86
2019-02-12T06:58:03.662Z,86
2019-02-12T06:59:03.753Z,86
2019-02-12T07:00:03.052Z,86
2019-02-12T07:01:03.059Z,86
2019-02-12T07:02:03.573Z,86
2019-02-12T07:03:03.116Z,86
2019-02-12T07:04:03.438Z,86
2019-02-12T07:05:03.742Z,86
2019-02-12T07:06:03.172Z,86
2019-02-12T07:07:02.827Z,86
2019-02-12T07:08:03.310Z,86
2019-02-12T07:09:02.969Z,86
2019-02-12T07:10:03.181Z,86
2019-02-12T07:11:02.745Z,86
2019-02-12T07:12:02.972Z,86
2019-02-12T07:13:03.799Z,86
2019-02-12T07:14:03.205Z,86
2019-02-12T07:15:03.786Z,86
2019-02-12T07:16:03.284Z,86
2019-02-12T07:17:03.423Z,86
2019-02-12T07:18:02.972Z,86
2019-02-12T07:19:03.595Z,86
2019-02-12T07:20:03.191Z,86
2019-02-12T07:21:03.880Z,86
2019-02-12T07:22:03.269Z,86
2019-02-12T07:23:03.656Z,86
2019-02-12T07:24:02.894Z,86
2019-02-12T07:25:03.360Z,86
2019-02-12T07:26:02.820Z,86
2019-02-12T07:27:03.500Z,86
2019-02-12T07:28:03.066Z,86
2019-02-12T07:29:03.710Z,86
2019-02-12T07:30:03.814Z,86
2019-02-12T07:31:03.196Z,86
2019-02-12T07:32:03.125Z,86
2019-02-12T07:33:03.378Z,86
2019-02-12T07:34:02.958Z,86
2019-02-12T07:35:03.747Z,86
2019-02-12T07:36:03.948Z,86
2019-02-12T07:37:03.237Z,86
2019-02-12T07:38:03.810Z,86
2019-02-12T07:39:03.324Z,86
2019-02-12T07:40:03.774Z,86
2019-02-12T07:41:03.444Z,86
2019-02-12T07:42:03.614Z,86
2019-02-12T07:43:03.017Z,86
2019-02-12T07:44:03.455Z,86
2019-02-12T07:45:03.265Z,86
2019-02-12T07:46:03.350Z,86
2019-02-12T07:47:03.255Z,86
2019-02-12T07:48:03.587Z,86
2019-02-12T07:49:02.855Z,86
2019-02-12T07:50:03.736Z,86
2019-02-12T07:51:03.103Z,86
2019-02-12T07:52:03.557Z,86
2019-02-12T07:53:03.432Z,86
2019-02-12T07:54:03.720Z,86
2019-02-12T07:55:03.210Z,86
2019-02-12T07:56:03.559Z,86
2019-02-12T07:57:03.128Z,86
2019-02-12T07:58:03.620Z,86
2019-02-12T07:59:03.416Z,86
2019-02-12T08:00:02.969Z,86
2019-02-12T08:01:03.277Z,86
2019-02-12T08:02:03.642Z,86
2019-02-12T08:03:03.213Z,86
2019-02-12T08:04:03.720Z,86
2019-02-12T08:05:03.568Z,86
2019-02-12T08:06:03.618Z,86
2019-02-12T08:07:02.835Z,86
2019-02-12T08:08:03.307Z,86
2019-02-12T08:09:03.882Z,86
2019-02-12T08:10:03.253Z,86
2019-02-12T08:11:02.973Z,86
2019-02-12T08:12:03.186Z,86
2019-02-12T08:13:03.885Z,86
2019-02-12T08:14:03.121Z,86
2019-02-12T08:15:03.645Z,86
2019-02-12T08:16:03.066Z,86
2019-02-12T08:17:03.551Z,86
2019-02-12T08:18:02.870Z,86
2019-02-12T08:19:03.610Z,86
2019-02-12T08:20:02.910Z,85
2019-02-12T08:21:03.513Z,85
2019-02-12T08:22:02.807Z,85
2019-02-12T08:23:03.754Z,85
2019-02-12T08:24:03.064Z,85
2019-02-12T08:25:03.681Z,85
2019-02-12T08:26:03.087Z,85
2019-02-12T08:27:03.360Z,85
2019-02-12T08:28:03.708Z,86
2019-02-12T08:29:03.337Z,86
2019-02-12T08:30:02.592Z,86
2019-02-12T08:31:03.324Z,86
2019-02-12T08:32:03.058Z,86
2019-02-12T08:33:03.285Z,86
2019-02-12T08:34:03.784Z,86
2019-02-12T08:35:03.619Z,86
2019-02-12T08:36:03.695Z,85
2019-02-12T08:37:03.716Z,85
2019-02-12T08:38:03.536Z,85
2019-02-12T08:39:03.266Z,85
2019-02-12T08:40:03.040Z,85
2019-02-12T08:41:03.839Z,85
2019-02-12T08:42:03.675Z,85
2019-02-12T08:43:03.434Z,85
2019-02-12T08:44:03.684Z,85
2019-02-12T08:45:03.343Z,85
2019-02-12T08:46:03.875Z,85
2019-02-12T08:47:03.412Z,85
2019-02-12T08:48:02.821Z,85
2019-02-12T08:49:03.489Z,85
2019-02-12T08:50:03.518Z,85
2019-02-12T08:51:03.409Z,84
2019-02-12T08:52:03.607Z,84
2019-02-12T08:53:03.325Z,84
2019-02-12T08:54:03.742Z,84
2019-02-12T08:55:03.434Z,84
2019-02-12T08:56:03.549Z,84
2019-02-12T08:57:02.975Z,84
2019-02-12T08:58:03.660Z,84
2019-02-12T08:59:02.789Z,84
2019-02-12T09:00:03.824Z,84
2019-02-12T09:01:02.977Z,84
2019-02-12T09:02:03.611Z,84
2019-02-12T09:03:02.929Z,84
2019-02-12T09:04:03.303Z,84
2019-02-12T09:05:03.633Z,84
2019-02-12T09:06:04.330Z,84
2019-02-12T09:07:03.772Z,84
2019-02-12T09:08:03.483Z,84
2019-02-12T09:09:03.682Z,83
2019-02-12T09:10:03.972Z,83
2019-02-12T09:11:03.731Z,83
2019-02-12T09:12:03.640Z,83
2019-02-12T09:13:03.456Z,83
2019-02-12T09:14:03.050Z,83
2019-02-12T09:15:03.398Z,83
2019-02-12T09:16:03.236Z,83
2019-02-12T09:17:03.035Z,83
2019-02-12T09:18:03.553Z,83
2019-02-12T09:19:03.211Z,83
2019-02-12T09:20:03.545Z,83
2019-02-12T09:21:03.535Z,83
2019-02-12T09:22:03.408Z,83
2019-02-12T09:23:03.779Z,83
2019-02-12T09:24:03.839Z,83
2019-02-12T09:25:03.824Z,83
2019-02-12T09:26:03.437Z,83
2019-02-12T09:27:03.361Z,83
2019-02-12T09:28:03.561Z,83
2019-02-12T09:29:03.212Z,83
2019-02-12T09:30:06.577Z,83
2019-02-12T09:31:03.647Z,83
2019-02-12T09:32:03.363Z,82
2019-02-12T09:33:03.690Z,82
2019-02-12T09:34:03.154Z,83
2019-02-12T09:35:03.559Z,83
2019-02-12T09:36:03.881Z,83
2019-02-12T09:37:03.513Z,83
2019-02-12T09:38:03.435Z,83
2019-02-12T09:39:02.771Z,83
2019-02-12T09:40:03.800Z,83
2019-02-12T09:41:03.044Z,83
2019-02-12T09:42:03.758Z,83
2019-02-12T09:43:03.382Z,83
2019-02-12T09:44:02.851Z,82
2019-02-12T09:45:03.401Z,82
2019-02-12T09:46:02.634Z,82
2019-02-12T09:47:03.436Z,82
2019-02-12T09:48:03.777Z,82
2019-02-12T09:49:02.879Z,82
2019-02-12T09:50:03.473Z,82
2019-02-12T09:51:02.643Z,82
2019-02-12T09:52:03.545Z,82
2019-02-12T09:53:02.839Z,82
2019-02-12T09:54:09.219Z,82
2019-02-12T09:55:02.938Z,82
2019-02-12T09:56:03.405Z,82
2019-02-12T09:57:02.967Z,82
2019-02-12T09:58:03.298Z,82
2019-02-12T09:59:03.412Z,82
2019-02-12T10:00:03.701Z,82
2019-02-12T10:01:02.910Z,82
2019-02-12T10:02:03.392Z,82
2019-02-12T10:03:02.772Z,82
2019-02-12T10:04:03.487Z,82
2019-02-12T10:05:03.318Z,82
2019-02-12T10:06:03.674Z,82
2019-02-12T10:07:03.230Z,82
2019-02-12T10:08:03.582Z,82
2019-02-12T10:09:03.359Z,82
2019-02-12T10:10:03.636Z,82
2019-02-12T10:11:03.329Z,82
2019-02-12T10:12:03.446Z,82
2019-02-12T10:13:03.104Z,82
2019-02-12T10:14:03.616Z,82
2019-02-12T10:15:03.003Z,82
2019-02-12T10:16:03.276Z,82
2019-02-12T10:17:02.894Z,82
2019-02-12T10:18:03.567Z,82
2019-02-12T10:19:03.102Z,82
2019-02-12T10:20:03.411Z,82
2019-02-12T10:21:03.723Z,82
2019-02-12T10:22:02.800Z,82
2019-02-12T10:23:03.559Z,82
2019-02-12T10:24:02.826Z,82
2019-02-12T10:25:03.489Z,82
2019-02-12T10:26:03.075Z,82
2019-02-12T10:27:03.502Z,81
2019-02-12T10:28:02.783Z,82
2019-02-12T10:29:03.248Z,81
2019-02-12T10:30:03.018Z,81
2019-02-12T10:31:03.566Z,81
2019-02-12T10:32:09.234Z,81
2019-02-12T10:33:03.034Z,81
2019-02-12T10:34:02.858Z,81
2019-02-12T10:35:03.262Z,81
2019-02-12T10:36:04.330Z,81
2019-02-12T10:37:03.262Z,81
2019-02-12T10:38:02.854Z,81
2019-02-12T10:39:02.874Z,81
2019-02-12T10:40:03.580Z,81
2019-02-12T10:41:02.943Z,81
2019-02-12T10:42:03.408Z,81
2019-02-12T10:43:02.740Z,81
2019-02-12T10:44:03.437Z,81
2019-02-12T10:45:02.977Z,81
2019-02-12T10:46:03.562Z,81
2019-02-12T10:47:03.049Z,81
2019-02-12T10:48:03.210Z,81
2019-02-12T10:49:02.902Z,81
2019-02-12T10:50:03.474Z,81
2019-02-12T10:51:02.755Z,80
2019-02-12T10:52:03.006Z,80
2019-02-12T10:53:03.316Z,81
2019-02-12T10:54:03.727Z,81
2019-02-12T10:55:03.407Z,80
2019-02-12T10:56:04.836Z,80
2019-02-12T10:57:03.529Z,80
2019-02-12T10:58:02.971Z,80
2019-02-12T10:59:03.349Z,80
2019-02-12T11:00:02.854Z,80
2019-02-12T11:01:03.055Z,80
2019-02-12T11:02:03.770Z,80
2019-02-12T11:03:03.099Z,80
2019-02-12T11:04:02.879Z,80
2019-02-12T11:05:03.184Z,80
2019-02-12T11:06:03.461Z,80
2019-02-12T11:07:03.142Z,80
2019-02-12T11:08:03.510Z,80
2019-02-12T11:09:02.977Z,80
2019-02-12T11:10:03.571Z,80
2019-02-12T11:11:03.024Z,80
2019-02-12T11:12:03.481Z,80
2019-02-12T11:13:03.223Z,80
2019-02-12T11:14:03.562Z,80
2019-02-12T11:15:03.756Z,80
2019-02-12T11:16:03.455Z,80
2019-02-12T11:17:02.988Z,80
2019-02-12T11:18:03.028Z,80
2019-02-12T11:19:02.939Z,80
2019-02-12T11:20:03.563Z,80
2019-02-12T11:21:12.613Z,80
2019-02-12T11:22:02.942Z,80
2019-02-12T11:23:03.712Z,80
2019-02-12T11:24:03.209Z,80
2019-02-12T11:25:03.827Z,80
2019-02-12T11:26:03.665Z,80
2019-02-12T11:27:02.688Z,80
2019-02-12T11:28:02.562Z,80
2019-02-12T11:29:02.966Z,80
2019-02-12T11:30:03.317Z,80
2019-02-12T11:31:03.633Z,80
2019-02-12T11:32:02.891Z,80
2019-02-12T11:33:03.579Z,80
2019-02-12T11:34:03.758Z,80
2019-02-12T11:35:03.152Z,80
2019-02-12T11:36:03.455Z,80
2019-02-12T11:37:02.963Z,80
2019-02-12T11:38:03.911Z,80
2019-02-12T11:39:03.075Z,80
2019-02-12T11:40:02.792Z,80
2019-02-12T11:41:03.206Z,80
2019-02-12T11:42:03.735Z,80
2019-02-12T11:43:03.028Z,79
2019-02-12T11:44:03.569Z,79
2019-02-12T11:45:03.318Z,79
2019-02-12T11:46:04.109Z,79
2019-02-12T11:47:02.797Z,79
2019-02-12T11:48:03.122Z,79
2019-02-12T11:49:03.523Z,79
2019-02-12T11:50:03.157Z,79
2019-02-12T11:51:02.883Z,79
2019-02-12T11:52:03.117Z,79
2019-02-12T11:53:02.835Z,79
2019-02-12T11:54:02.916Z,79
2019-02-12T11:55:03.665Z,79
2019-02-12T11:56:03.063Z,79
2019-02-12T11:57:02.863Z,79
2019-02-12T11:58:02.952Z,79
2019-02-12T11:59:03.541Z,79
2019-02-12T12:00:03.292Z,78
2019-02-12T12:01:03.502Z,78
2019-02-12T12:02:02.799Z,78
2019-02-12T12:03:03.264Z,78
2019-02-12T12:04:03.115Z,78
2019-02-12T12:05:03.526Z,78
2019-02-12T12:06:01.940Z,78
2019-02-12T12:07:03.557Z,78
2019-02-12T12:08:02.807Z,78
2019-02-12T12:09:03.457Z,78
2019-02-12T12:10:03.877Z,78
2019-02-12T12:11:03.393Z,78
2019-02-12T12:12:02.934Z,78
2019-02-12T12:13:03.290Z,78
2019-02-12T12:14:02.623Z,78
2019-02-12T12:15:03.244Z,78
2019-02-12T12:16:03.669Z,78
2019-02-12T12:17:03.326Z,78
2019-02-12T12:18:03.314Z,77
2019-02-12T12:19:03.100Z,77
2019-02-12T12:20:03.586Z,78
2019-02-12T12:21:02.954Z,78
2019-02-12T12:22:03.650Z,78
2019-02-12T12:23:02.861Z,78
2019-02-12T12:24:03.493Z,78
2019-02-12T12:25:02.869Z,78
2019-02-12T12:26:03.375Z,78
2019-02-12T12:27:02.734Z,78
2019-02-12T12:28:03.166Z,78
2019-02-12T12:29:02.882Z,78
2019-02-12T12:30:03.783Z,78
2019-02-12T12:31:02.937Z,78
2019-02-12T12:32:03.283Z,78
2019-02-12T12:33:03.151Z,78
2019-02-12T12:34:03.796Z,78
2019-02-12T12:35:02.892Z,78
2019-02-12T12:36:03.754Z,78
2019-02-12T12:37:02.998Z,78
2019-02-12T12:38:03.591Z,78
2019-02-12T12:39:02.766Z,78
2019-02-12T12:40:03.517Z,78
2019-02-12T12:41:02.957Z,78
2019-02-12T12:42:03.204Z,78
2019-02-12T12:43:03.122Z,78
2019-02-12T12:44:03.730Z,78
2019-02-12T12:45:02.972Z,78
2019-02-12T12:46:03.281Z,78
2019-02-12T12:47:03.762Z,78
2019-02-12T12:48:03.027Z,78
2019-02-12T12:49:03.389Z,78
2019-02-12T12:50:03.703Z,78
2019-02-12T12:51:02.870Z,78
2019-02-12T12:52:03.719Z,78
2019-02-12T12:53:02.951Z,78
2019-02-12T12:54:03.421Z,78
2019-02-12T12:55:03.525Z,78
2019-02-12T12:56:03.517Z,78
2019-02-12T12:57:04.026Z,78
2019-02-12T12:58:03.409Z,78
2019-02-12T12:59:03.271Z,78
2019-02-12T13:00:03.351Z,78
2019-02-12T13:01:03.817Z,78
2019-02-12T13:02:02.899Z,78
2019-02-12T13:03:04.245Z,78
2019-02-12T13:04:03.167Z,77
2019-02-12T13:05:03.791Z,77
2019-02-12T13:06:03.258Z,77
2019-02-12T13:07:03.179Z,77
2019-02-12T13:08:03.307Z,77
2019-02-12T13:09:02.962Z,77
2019-02-12T13:10:02.821Z,77
2019-02-12T13:11:03.069Z,77
2019-02-12T13:12:03.458Z,77
2019-02-12T13:13:04.977Z,77
2019-02-12T13:14:03.507Z,77
2019-02-12T13:15:03.398Z,77
2019-02-12T13:16:03.551Z,77
2019-02-12T13:17:03.098Z,77
2019-02-12T13:18:03.375Z,77
2019-02-12T13:19:03.226Z,77
2019-02-12T13:20:03.432Z,77
2019-02-12T13:21:03.675Z,77
2019-02-12T13:22:03.454Z,77
2019-02-12T13:23:02.900Z,77
2019-02-12T13:24:03.461Z,77
2019-02-12T13:25:09.088Z,77
2019-02-12T13:26:03.259Z,77
2019-02-12T13:27:03.340Z,76
2019-02-12T13:28:03.791Z,76
2019-02-12T13:29:03.011Z,76
2019-02-12T13:30:03.662Z,76
2019-02-12T13:31:02.698Z,76
2019-02-12T13:32:03.577Z,76
2019-02-12T13:33:02.907Z,76
2019-02-12T13:34:02.847Z,76
2019-02-12T13:35:02.894Z,76
2019-02-12T13:36:03.382Z,76
2019-02-12T13:37:02.996Z,76
2019-02-12T13:38:02.983Z,76
2019-02-12T13:39:02.772Z,76
2019-02-12T13:40:03.454Z,76
2019-02-12T13:41:02.975Z,76
2019-02-12T13:42:03.278Z,76
2019-02-12T13:43:03.622Z,76
2019-02-12T13:44:03.330Z,76
2019-02-12T13:45:03.118Z,76
2019-02-12T13:46:03.454Z,76
2019-02-12T13:47:03.205Z,76
2019-02-12T13:48:02.889Z,76
2019-02-12T13:49:03.633Z,76
2019-02-12T13:50:03.361Z,76
2019-02-12T13:51:03.599Z,76
2019-02-12T13:52:03.007Z,76
2019-02-12T13:53:03.066Z,76
2019-02-12T13:54:05.017Z,76
2019-02-12T13:55:03.239Z,76
2019-02-12T13:56:02.637Z,76
2019-02-12T13:57:03.442Z,76
2019-02-12T13:58:02.742Z,76
2019-02-12T13:59:03.253Z,76
2019-02-12T14:00:03.576Z,76
2019-02-12T14:01:02.941Z,76
2019-02-12T14:02:03.593Z,76
2019-02-12T14:03:03.863Z,76
2019-02-12T14:04:03.975Z,76
2019-02-12T14:05:03.651Z,76
2019-02-12T14:06:03.544Z,76
2019-02-12T14:07:03.462Z,76
2019-02-12T14:08:04.876Z,76
2019-02-12T14:09:02.908Z,76
2019-02-12T14:10:03.520Z,76
2019-02-12T14:11:03.085Z,76
2019-02-12T14:12:03.238Z,76
2019-02-12T14:13:03.079Z,76
2019-02-12T14:14:03.446Z,76
2019-02-12T14:15:03.631Z,76